Time;durP1;ratioP1;P1;durP2;ratioP2;P2;SDS_P1;SDS_P2;PMS_P1;PMS_P2;Temp;Humidity;BMP_temperature;BMP_pressure;BME280_temperature;BME280_humidity;BME280_pressure;Samples;Min_cycle;Max_cycle;Signal;HPM_P1;HPM_P2
2021/12/19 00:00:22;;;;;;;47.13;31.15;;;19.10;78.40;;;;;;1946067;73;21136;-77
2021/12/19 00:10:31;;;;;;;53.52;34.03;;;19.10;78.60;;;;;;1953498;71;21090;-76
2021/12/19 00:13:02;;;;;;;47.43;32.15;;;19.00;78.80;;;;;;1935525;73;21112;-76
2021/12/19 00:15:34;;;;;;;53.17;32.15;;;19.10;79.00;;;;;;1929879;73;21131;-77
2021/12/19 00:18:04;;;;;;;46.63;32.25;;;19.20;78.60;;;;;;1940947;73;21137;-77
2021/12/19 00:20:35;;;;;;;47.73;30.95;;;19.30;78.10;;;;;;1936035;74;21056;-77
2021/12/19 00:23:08;;;;;;;49.40;31.85;;;19.30;77.80;;;;;;1920867;74;21130;-77
2021/12/19 00:25:39;;;;;;;45.88;32.03;;;19.40;77.50;;;;;;1930589;74;21117;-77
2021/12/19 00:28:10;;;;;;;43.30;30.68;;;19.50;77.40;;;;;;1932327;74;21140;-77
2021/12/19 00:30:41;;;;;;;50.35;33.35;;;19.60;77.30;;;;;;1930805;74;21134;-76
2021/12/19 00:33:13;;;;;;;48.33;31.40;;;19.70;76.70;;;;;;1933637;74;21122;-76
2021/12/19 00:35:44;;;;;;;49.70;33.45;;;19.80;76.30;;;;;;1851458;76;21706;-77
2021/12/19 00:38:15;;;;;;;45.08;30.05;;;19.90;75.90;;;;;;1933098;72;21150;-76
2021/12/19 00:40:46;;;;;;;46.15;32.08;;;20.00;75.70;;;;;;1936739;74;21130;-77
2021/12/19 00:43:33;;;;;;;48.63;30.97;;;20.10;75.30;;;;;;1945768;72;21054;-77
2021/12/19 00:45:51;;;;;;;46.13;31.62;;;20.10;75.10;;;;;;1892242;75;21146;-77
2021/12/19 00:48:22;;;;;;;46.25;31.73;;;20.30;74.90;;;;;;1923523;74;21156;-77
2021/12/19 00:50:53;;;;;;;46.13;30.65;;;20.40;74.40;;;;;;1929194;74;21529;-77
2021/12/19 00:53:24;;;;;;;45.28;30.37;;;20.50;74.00;;;;;;1935890;74;21818;-79
2021/12/19 00:55:55;;;;;;;44.83;30.32;;;20.60;73.70;;;;;;1923638;74;21872;-77
2021/12/19 00:58:27;;;;;;;48.17;30.97;;;20.70;73.50;;;;;;1901346;74;21106;-79
2021/12/19 01:00:58;;;;;;;44.03;30.50;;;20.70;72.80;;;;;;1929770;74;21128;-78
2021/12/19 01:03:29;;;;;;;42.70;29.27;;;20.70;72.80;;;;;;1934990;74;21570;-79
2021/12/19 01:06:01;;;;;;;46.30;29.60;;;20.80;72.60;;;;;;1930062;74;21130;-78
2021/12/19 01:08:32;;;;;;;44.65;29.52;;;20.90;72.50;;;;;;1932312;72;21121;-78
2021/12/19 01:11:04;;;;;;;42.85;29.52;;;20.90;72.30;;;;;;1918471;74;21592;-78
2021/12/19 01:13:35;;;;;;;43.73;29.18;;;21.00;72.00;;;;;;1938295;72;21735;-80
2021/12/19 01:16:06;;;;;;;41.68;29.48;;;21.10;71.80;;;;;;1934769;73;21495;-79
2021/12/19 01:18:37;;;;;;;41.18;29.92;;;21.10;71.20;;;;;;1936663;74;21205;-79
2021/12/19 01:21:15;;;;;;;44.00;29.57;;;21.10;71.20;;;;;;1922010;73;21123;-80
2021/12/19 01:23:46;;;;;;;40.35;29.00;;;21.10;71.30;;;;;;1931302;74;21581;-79
2021/12/19 01:26:20;;;;;;;44.95;29.95;;;21.20;70.80;;;;;;1928471;74;21602;-79
2021/12/19 01:29:14;;;;;;;41.73;28.42;;;21.20;70.70;;;;;;1932994;74;21213;-79
2021/12/19 01:31:43;;;;;;;47.80;29.70;;;21.20;70.80;;;;;;1928325;73;21111;-80
2021/12/19 01:34:14;;;;;;;39.83;28.23;;;21.30;70.50;;;;;;1931786;73;21031;-81
2021/12/19 01:36:45;;;;;;;43.95;29.85;;;21.40;70.40;;;;;;1924118;73;21089;-78
2021/12/19 01:39:19;;;;;;;41.33;28.12;;;21.50;70.10;;;;;;1930018;73;21185;-78
2021/12/19 01:41:53;;;;;;;43.23;27.82;;;21.50;69.60;;;;;;1927844;74;21065;-80
2021/12/19 01:44:26;;;;;;;40.65;28.95;;;21.60;69.60;;;;;;1930201;73;21158;-80
2021/12/19 01:46:59;;;;;;;42.05;28.20;;;21.60;69.20;;;;;;1928334;74;21571;-80
2021/12/19 01:49:29;;;;;;;42.93;30.25;;;21.70;69.20;;;;;;1930992;74;21536;-79
2021/12/19 01:52:01;;;;;;;40.00;28.07;;;21.70;69.00;;;;;;1931665;74;21103;-77
2021/12/19 01:54:32;;;;;;;46.37;29.10;;;21.80;68.70;;;;;;1873295;74;21193;-79
2021/12/19 01:57:05;;;;;;;40.60;28.62;;;21.80;68.40;;;;;;1929096;74;21193;-78
2021/12/19 01:59:36;;;;;;;39.83;27.22;;;21.80;68.40;;;;;;1924478;73;21166;-79
2021/12/19 02:02:07;;;;;;;40.17;27.77;;;21.90;68.50;;;;;;1928642;73;21193;-78
2021/12/19 02:04:38;;;;;;;40.28;27.77;;;21.90;68.40;;;;;;1932681;73;21183;-78
2021/12/19 02:07:10;;;;;;;45.05;28.65;;;22.00;68.10;;;;;;1929989;73;21100;-78
2021/12/19 02:09:42;;;;;;;41.85;28.67;;;22.10;68.00;;;;;;1930796;74;21112;-78
2021/12/19 02:12:14;;;;;;;39.20;27.77;;;22.10;68.50;;;;;;1927710;74;21139;-78
2021/12/19 02:14:45;;;;;;;40.08;27.55;;;22.20;67.50;;;;;;1928941;74;21056;-77
2021/12/19 02:17:17;;;;;;;37.42;28.17;;;22.20;67.00;;;;;;1928461;74;21131;-77
2021/12/19 02:19:56;;;;;;;40.65;28.85;;;22.20;67.00;;;;;;1926553;73;21267;-78
2021/12/19 02:22:24;;;;;;;41.50;31.00;;;22.30;66.70;;;;;;1936331;72;21127;-77
2021/12/19 02:24:54;;;;;;;48.35;30.95;;;22.30;66.50;;;;;;1908475;74;21067;-78
2021/12/19 02:27:28;;;;;;;42.00;28.47;;;22.30;66.50;;;;;;1937429;73;21195;-78
2021/12/19 02:30:00;;;;;;;40.33;27.52;;;22.30;66.20;;;;;;1943971;72;21103;-77
2021/12/19 02:32:32;;;;;;;41.95;27.95;;;22.30;66.30;;;;;;1941550;72;21595;-78
2021/12/19 02:35:07;;;;;;;38.90;28.10;;;22.40;66.50;;;;;;1943449;73;21110;-80
2021/12/19 02:50:23;;;;;;;38.75;26.50;;;22.60;65.60;;;;;;1934296;72;21190;-80
2021/12/19 02:52:54;;;;;;;39.13;28.15;;;22.60;65.60;;;;;;1939050;72;21185;-80
2021/12/19 02:55:25;;;;;;;42.95;28.80;;;22.60;65.50;;;;;;1915854;74;21646;-79
2021/12/19 02:57:56;;;;;;;42.50;28.87;;;22.70;66.70;;;;;;1933260;74;21599;-80
2021/12/19 03:00:28;;;;;;;41.80;27.55;;;22.70;65.50;;;;;;1931627;74;21220;-78
2021/12/19 03:03:06;;;;;;;40.63;27.62;;;22.80;65.30;;;;;;1938051;72;21127;-79
2021/12/19 03:05:38;;;;;;;43.78;29.30;;;22.90;65.20;;;;;;1931846;73;21033;-79
2021/12/19 03:08:10;;;;;;;42.35;27.75;;;22.90;64.80;;;;;;1936468;72;21536;-80
2021/12/19 03:13:47;;;;;;;39.67;26.27;;;23.00;64.80;;;;;;1906756;75;21157;-80
2021/12/19 03:18:19;;;;;;;32.13;22.67;;;23.20;63.20;;;;;;1950628;72;21154;-76
2021/12/19 03:20:50;;;;;;;29.30;22.90;;;23.20;63.00;;;;;;1935008;74;21107;-78
2021/12/19 03:23:23;;;;;;;28.42;22.60;;;23.30;62.60;;;;;;1936617;72;21183;-79
2021/12/19 03:25:57;;;;;;;31.73;21.80;;;23.40;62.40;;;;;;1935368;73;21082;-78
2021/12/19 03:28:27;;;;;;;30.37;21.17;;;23.40;62.10;;;;;;1938263;72;21059;-78
2021/12/19 03:30:58;;;;;;;30.15;21.07;;;23.50;62.10;;;;;;1932682;74;21205;-78
2021/12/19 03:33:30;;;;;;;33.00;23.35;;;23.60;61.80;;;;;;1932475;74;21208;-78
2021/12/19 03:36:01;;;;;;;29.95;21.20;;;23.60;61.60;;;;;;1929675;74;21100;-76
2021/12/19 03:38:37;;;;;;;32.17;22.07;;;23.70;60.90;;;;;;1935345;72;21136;-78
2021/12/19 03:43:43;;;;;;;30.23;21.42;;;23.80;60.40;;;;;;1936838;72;21140;-78
2021/12/19 03:46:18;;;;;;;30.48;22.07;;;23.90;60.40;;;;;;1939557;72;21200;-77
2021/12/19 03:48:49;;;;;;;27.30;20.60;;;24.00;59.90;;;;;;1928596;74;21679;-77
2021/12/19 03:51:24;;;;;;;25.55;19.40;;;24.10;59.40;;;;;;1935151;72;21068;-79
2021/12/19 03:53:55;;;;;;;27.95;19.90;;;24.20;60.00;;;;;;1908504;74;21145;-79
2021/12/19 03:56:27;;;;;;;23.45;18.07;;;24.30;59.10;;;;;;1938981;72;21533;-79
2021/12/19 03:58:58;;;;;;;28.38;19.45;;;24.40;59.10;;;;;;1930854;74;21143;-80
2021/12/19 04:01:29;;;;;;;28.25;18.73;;;24.40;58.60;;;;;;1930234;73;21163;-78
2021/12/19 04:04:00;;;;;;;23.35;17.57;;;24.50;58.30;;;;;;1943489;72;21157;-73
2021/12/19 04:06:32;;;;;;;23.10;18.57;;;24.50;57.40;;;;;;1954510;72;21167;-74
2021/12/19 04:09:03;;;;;;;26.85;18.92;;;24.50;57.50;;;;;;1891464;74;21163;-73
2021/12/19 04:11:34;;;;;;;25.35;18.35;;;24.60;58.00;;;;;;1891876;74;21695;-75
2021/12/19 04:14:08;;;;;;;25.00;18.95;;;24.60;57.90;;;;;;1949079;72;21193;-73
2021/12/19 04:16:42;;;;;;;26.93;18.80;;;24.70;57.40;;;;;;1935913;73;21108;-74
2021/12/19 04:19:13;;;;;;;23.57;17.45;;;24.80;57.10;;;;;;1934950;74;21158;-73
2021/12/19 04:21:43;;;;;;;29.42;17.82;;;24.90;57.40;;;;;;1933734;74;21124;-74
2021/12/19 04:24:14;;;;;;;23.47;17.57;;;25.10;57.00;;;;;;1912906;74;21097;-73
2021/12/19 04:26:45;;;;;;;23.65;17.67;;;25.10;56.70;;;;;;1936206;74;21683;-74
2021/12/19 04:29:16;;;;;;;29.48;18.35;;;25.20;56.10;;;;;;1938923;72;21810;-73
2021/12/19 04:31:48;;;;;;;28.65;18.50;;;25.30;56.10;;;;;;1903142;74;21135;-74
2021/12/19 04:34:19;;;;;;;25.40;18.25;;;25.40;56.00;;;;;;1865959;75;21616;-73
2021/12/19 04:37:00;;;;;;;25.45;17.42;;;25.50;56.30;;;;;;1900255;74;21108;-72
2021/12/19 05:00:05;;;;;;;27.87;19.10;;;26.10;54.40;;;;;;1946430;73;21122;-73
2021/12/19 05:02:42;;;;;;;26.82;18.92;;;26.10;53.70;;;;;;1938521;74;21093;-73
2021/12/19 05:15:02;;;;;;;23.32;18.20;;;26.20;54.00;;;;;;1943686;72;21072;-72
2021/12/19 05:17:34;;;;;;;27.55;17.98;;;26.30;53.40;;;;;;1939069;73;21920;-74
2021/12/19 05:20:19;;;;;;;26.97;19.75;;;26.30;53.20;;;;;;1932806;74;21131;-74
2021/12/19 05:22:47;;;;;;;23.95;18.77;;;26.30;54.10;;;;;;1938071;72;21063;-73
2021/12/19 05:25:14;;;;;;;23.85;17.62;;;26.30;53.50;;;;;;1914344;72;21083;-73
2021/12/19 05:27:46;;;;;;;23.42;17.90;;;26.40;53.30;;;;;;1915279;74;21200;-74
2021/12/19 05:30:18;;;;;;;23.52;18.12;;;26.50;53.60;;;;;;1922852;74;21154;-73
2021/12/19 05:32:50;;;;;;;23.35;17.98;;;26.60;52.60;;;;;;1910727;74;21585;-74
2021/12/19 05:35:44;;;;;;;26.00;17.67;;;26.70;52.20;;;;;;1963256;72;21118;-74
2021/12/19 05:45:32;;;;;;;31.40;20.90;;;26.70;51.50;;;;;;1955063;72;21210;-73
2021/12/19 05:48:03;;;;;;;24.92;20.32;;;26.60;51.40;;;;;;1954621;72;21197;-74
2021/12/19 05:50:34;;;;;;;27.02;19.12;;;26.60;52.00;;;;;;1933923;73;21194;-74
2021/12/19 05:53:05;;;;;;;30.32;20.20;;;26.60;52.20;;;;;;1939784;73;21132;-73
2021/12/19 05:55:36;;;;;;;26.25;20.17;;;26.60;52.40;;;;;;1958959;72;21132;-72
2021/12/19 05:58:08;;;;;;;25.75;19.27;;;26.70;52.10;;;;;;1970471;72;21120;-72
2021/12/19 06:00:40;;;;;;;29.90;19.37;;;26.70;52.20;;;;;;1976265;72;21150;-72
2021/12/19 06:03:10;;;;;;;27.73;19.92;;;26.80;52.20;;;;;;1971276;72;21109;-75
2021/12/19 06:05:41;;;;;;;27.27;20.57;;;26.80;52.00;;;;;;1976849;72;21194;-72
2021/12/19 06:08:12;;;;;;;31.02;20.70;;;26.80;51.90;;;;;;1967182;72;21112;-72
2021/12/19 06:10:43;;;;;;;27.87;19.92;;;26.80;51.70;;;;;;1943556;71;21087;-72
2021/12/19 06:13:14;;;;;;;28.98;20.57;;;26.80;52.00;;;;;;1946789;73;21189;-72
2021/12/19 06:15:45;;;;;;;30.05;21.35;;;26.90;52.00;;;;;;1966191;72;21084;-73
2021/12/19 06:18:16;;;;;;;27.22;20.65;;;26.90;51.80;;;;;;1967697;72;21225;-72
2021/12/19 06:20:47;;;;;;;26.25;20.57;;;27.00;52.00;;;;;;1921064;73;21673;-73
2021/12/19 06:23:18;;;;;;;30.97;20.97;;;27.00;51.40;;;;;;1968688;72;21615;-72
2021/12/19 06:25:49;;;;;;;30.08;20.48;;;26.90;51.50;;;;;;1977057;72;21520;-72
2021/12/19 06:28:22;;;;;;;31.30;21.23;;;26.90;51.90;;;;;;1974176;71;21575;-72
2021/12/19 06:30:53;;;;;;;28.98;20.15;;;26.90;51.50;;;;;;1973093;71;21161;-72
2021/12/19 06:33:23;;;;;;;22.85;18.37;;;26.80;51.20;;;;;;1973254;71;21173;-73
2021/12/19 06:35:56;;;;;;;23.10;18.30;;;26.90;51.50;;;;;;1925583;73;21072;-73
2021/12/19 06:38:26;;;;;;;25.50;18.30;;;26.80;51.40;;;;;;1974004;72;21037;-73
2021/12/19 06:40:57;;;;;;;25.23;18.92;;;26.80;51.30;;;;;;1999933;71;21147;-73
2021/12/19 06:43:30;;;;;;;23.95;18.57;;;26.90;52.60;;;;;;1945579;72;21096;-72
2021/12/19 06:46:00;;;;;;;21.97;17.60;;;26.90;51.50;;;;;;1944625;72;21108;-73
2021/12/19 06:48:31;;;;;;;24.27;17.35;;;26.90;51.60;;;;;;1968055;72;21048;-73
2021/12/19 06:51:02;;;;;;;23.38;17.80;;;27.00;52.50;;;;;;1984204;72;21189;-73
2021/12/19 06:53:33;;;;;;;22.35;17.10;;;27.10;51.60;;;;;;1973743;71;21691;-73
2021/12/19 06:56:04;;;;;;;18.80;15.30;;;27.10;50.90;;;;;;1964569;72;21091;-73
2021/12/19 06:58:35;;;;;;;22.48;17.75;;;27.10;50.30;;;;;;1927644;72;21116;-73
2021/12/19 07:01:09;;;;;;;22.67;17.65;;;27.10;50.30;;;;;;1968010;72;21673;-74
2021/12/19 07:03:38;;;;;;;23.83;17.23;;;27.10;50.60;;;;;;1977911;71;21580;-73
2021/12/19 07:06:10;;;;;;;22.77;17.02;;;27.10;50.20;;;;;;1980170;72;21092;-74
2021/12/19 07:08:41;;;;;;;23.92;16.40;;;27.10;50.10;;;;;;1971547;72;21048;-73
2021/12/19 07:11:12;;;;;;;20.85;16.10;;;27.00;50.70;;;;;;1975698;72;21115;-73
2021/12/19 07:13:43;;;;;;;19.55;15.70;;;27.00;50.40;;;;;;1981782;71;21127;-73
2021/12/19 07:16:14;;;;;;;20.00;15.38;;;27.00;50.50;;;;;;1963811;71;21607;-73
2021/12/19 07:18:46;;;;;;;25.68;17.20;;;27.00;50.40;;;;;;1958436;72;21544;-75
2021/12/19 07:21:17;;;;;;;21.85;15.90;;;27.10;50.20;;;;;;1972797;71;21271;-73
2021/12/19 07:23:48;;;;;;;23.73;16.42;;;27.10;50.50;;;;;;1968641;72;21642;-73
2021/12/19 07:26:19;;;;;;;23.55;15.93;;;27.20;50.30;;;;;;1961466;71;21163;-73
2021/12/19 07:28:51;;;;;;;23.12;15.70;;;27.20;50.20;;;;;;1949150;73;21192;-71
2021/12/19 07:31:23;;;;;;;20.95;15.63;;;27.20;50.50;;;;;;1950842;73;21600;-73
2021/12/19 07:33:54;;;;;;;23.50;15.85;;;27.20;50.10;;;;;;1927715;73;21147;-73
2021/12/19 07:36:29;;;;;;;20.77;15.53;;;27.30;50.00;;;;;;1965573;71;21117;-72
2021/12/19 07:39:06;;;;;;;19.70;15.03;;;27.30;49.90;;;;;;1952585;72;21029;-74
2021/12/19 07:41:30;;;;;;;23.10;15.88;;;27.30;50.20;;;;;;1923181;73;21178;-74
2021/12/19 07:44:00;;;;;;;26.70;16.65;;;27.20;49.70;;;;;;1968880;72;21124;-72
2021/12/19 07:46:36;;;;;;;27.75;18.23;;;27.10;51.00;;;;;;1974153;71;21280;-73
2021/12/19 07:49:04;;;;;;;24.00;15.45;;;27.10;50.30;;;;;;1984338;71;21072;-73
2021/12/19 07:51:36;;;;;;;19.37;15.93;;;27.10;50.30;;;;;;1994551;71;21073;-72
2021/12/19 07:54:07;;;;;;;22.62;16.27;;;27.10;50.40;;;;;;1943060;72;21092;-72
2021/12/19 07:56:39;;;;;;;22.82;16.55;;;27.10;50.20;;;;;;1921884;73;21678;-73
2021/12/19 07:59:11;;;;;;;24.10;16.73;;;27.10;50.30;;;;;;1952957;71;21170;-72
2021/12/19 08:01:42;;;;;;;21.05;15.43;;;27.10;50.70;;;;;;1894959;74;21092;-73
2021/12/19 08:04:13;;;;;;;20.40;15.30;;;27.10;50.60;;;;;;1984290;71;21152;-73
2021/12/19 08:06:43;;;;;;;21.77;14.87;;;27.10;50.70;;;;;;1928101;73;21669;-73
2021/12/19 08:09:21;;;;;;;20.40;14.40;;;27.10;51.10;;;;;;1951779;72;21419;-72
2021/12/19 08:11:48;;;;;;;21.60;15.20;;;27.10;50.20;;;;;;1956320;71;21180;-73
2021/12/19 08:14:18;;;;;;;19.57;14.45;;;27.10;49.90;;;;;;1891899;75;21576;-72
2021/12/19 08:16:52;;;;;;;21.57;15.38;;;27.10;50.50;;;;;;1911825;74;21595;-72
2021/12/19 08:19:29;;;;;;;21.12;15.15;;;27.10;49.90;;;;;;1963206;72;21120;-71
2021/12/19 08:22:01;;;;;;;22.35;16.10;;;27.10;50.10;;;;;;1925199;73;21651;-72
2021/12/19 08:24:35;;;;;;;20.12;15.63;;;27.10;50.20;;;;;;1962913;71;21193;-73
2021/12/19 08:27:06;;;;;;;20.12;15.18;;;27.10;50.40;;;;;;1892354;74;21159;-72
2021/12/19 08:29:36;;;;;;;24.35;15.53;;;27.10;50.30;;;;;;1970890;72;21155;-73
2021/12/19 08:32:07;;;;;;;21.07;15.25;;;27.10;50.30;;;;;;1943144;73;21139;-74
2021/12/19 08:34:38;;;;;;;21.45;15.65;;;27.10;50.20;;;;;;1971741;72;21100;-73
2021/12/19 08:37:10;;;;;;;17.48;15.05;;;27.10;50.70;;;;;;1970033;72;21032;-73
2021/12/19 08:39:41;;;;;;;19.50;14.75;;;27.00;50.60;;;;;;1969151;72;21668;-73
2021/12/19 08:42:13;;;;;;;21.33;16.45;;;26.90;50.20;;;;;;1973891;71;21556;-73
2021/12/19 08:44:44;;;;;;;24.60;16.02;;;26.90;50.10;;;;;;1897720;74;21067;-73
2021/12/19 08:47:16;;;;;;;18.50;15.20;;;26.80;50.50;;;;;;1943769;73;21127;-74
2021/12/19 08:49:47;;;;;;;19.92;15.60;;;26.80;50.80;;;;;;1969479;72;21616;-73
2021/12/19 08:52:18;;;;;;;19.37;14.18;;;26.70;51.00;;;;;;1941866;72;21065;-74
2021/12/19 08:54:49;;;;;;;18.42;14.38;;;26.70;51.00;;;;;;1947594;72;21116;-74
2021/12/19 08:57:20;;;;;;;18.85;15.08;;;26.60;51.50;;;;;;1969766;71;21197;-73
2021/12/19 08:59:50;;;;;;;20.77;14.47;;;26.60;50.50;;;;;;1984163;71;21159;-73
2021/12/19 09:02:21;;;;;;;19.98;14.73;;;26.60;51.00;;;;;;1946035;72;21135;-74
2021/12/19 09:04:52;;;;;;;21.97;15.38;;;26.60;51.10;;;;;;1957710;71;21041;-75
2021/12/19 09:07:22;;;;;;;20.72;15.25;;;26.50;51.00;;;;;;1940514;72;22271;-74
2021/12/19 09:09:53;;;;;;;18.37;14.93;;;26.50;51.20;;;;;;1973933;71;21068;-75
2021/12/19 09:12:25;;;;;;;20.37;15.98;;;26.40;51.10;;;;;;1966074;72;21605;-75
2021/12/19 09:14:56;;;;;;;25.02;15.55;;;26.40;51.30;;;;;;1972326;72;21123;-74
2021/12/19 09:17:27;;;;;;;24.27;15.35;;;26.30;51.30;;;;;;1983209;72;21075;-74
2021/12/19 09:19:58;;;;;;;19.75;15.78;;;26.30;51.50;;;;;;1980437;72;21550;-74
2021/12/19 09:22:30;;;;;;;20.77;16.62;;;26.30;51.90;;;;;;1973567;72;21805;-74
2021/12/19 09:25:03;;;;;;;21.50;15.68;;;26.20;52.10;;;;;;1975669;71;21166;-74
2021/12/19 09:27:34;;;;;;;25.00;17.15;;;26.20;52.10;;;;;;1977667;71;21189;-74
2021/12/19 09:30:06;;;;;;;18.92;15.68;;;26.10;52.10;;;;;;1966502;71;21119;-75
2021/12/19 09:32:37;;;;;;;27.52;16.60;;;26.10;52.20;;;;;;1972463;72;21189;-74
2021/12/19 09:35:10;;;;;;;21.57;15.40;;;26.10;52.30;;;;;;1912565;74;21600;-73
2021/12/19 09:37:41;;;;;;;21.42;16.48;;;26.10;52.00;;;;;;1971367;73;21143;-73
2021/12/19 09:40:20;;;;;;;26.25;18.48;;;26.00;52.20;;;;;;1981477;71;21568;-74
2021/12/19 09:42:49;;;;;;;25.20;15.95;;;26.10;52.50;;;;;;2013425;71;21081;-74
2021/12/19 09:45:21;;;;;;;21.52;15.95;;;26.00;52.50;;;;;;1968973;71;21572;-74
2021/12/19 09:47:53;;;;;;;27.82;16.55;;;26.00;52.40;;;;;;1918931;73;21683;-75
2021/12/19 09:50:24;;;;;;;23.73;16.62;;;26.00;52.40;;;;;;1957173;72;21121;-71
2021/12/19 09:52:55;;;;;;;22.25;17.25;;;26.00;52.70;;;;;;1971405;73;21108;-73
2021/12/19 09:55:28;;;;;;;27.32;17.75;;;25.90;52.30;;;;;;1927860;73;21809;-74
2021/12/19 09:58:00;;;;;;;21.77;16.97;;;25.90;52.60;;;;;;1976737;71;21119;-74
2021/12/19 10:00:35;;;;;;;29.07;17.52;;;25.90;52.50;;;;;;1969070;72;21534;-75
2021/12/19 10:03:05;;;;;;;24.65;18.17;;;25.90;52.60;;;;;;1934254;73;21170;-73
2021/12/19 10:05:36;;;;;;;30.08;19.42;;;25.90;52.70;;;;;;1965917;72;21108;-74
2021/12/19 10:08:21;;;;;;;25.52;18.40;;;25.90;52.90;;;;;;1932346;73;21666;-74
2021/12/19 10:10:59;;;;;;;26.73;17.85;;;25.90;52.90;;;;;;1898336;75;21146;-74
2021/12/19 10:13:26;;;;;;;29.82;18.30;;;25.90;53.00;;;;;;1903113;73;21136;-74
2021/12/19 10:15:57;;;;;;;24.23;19.12;;;25.80;53.10;;;;;;1899177;75;21120;-74
2021/12/19 10:18:29;;;;;;;26.23;19.25;;;25.90;53.20;;;;;;1899396;75;21195;-73
2021/12/19 10:21:01;;;;;;;27.07;19.35;;;25.80;53.50;;;;;;1912409;74;21603;-74
2021/12/19 10:23:34;;;;;;;28.90;18.98;;;25.80;53.50;;;;;;1887295;73;21147;-73
2021/12/19 10:26:07;;;;;;;29.50;18.42;;;25.80;53.60;;;;;;1878730;74;21238;-75
2021/12/19 10:28:40;;;;;;;23.55;17.90;;;25.80;53.70;;;;;;1899744;73;21234;-73
2021/12/19 10:31:12;;;;;;;33.10;20.70;;;25.70;53.70;;;;;;1873047;76;21168;-73
2021/12/19 10:33:46;;;;;;;26.68;18.40;;;25.70;53.70;;;;;;1903309;73;21218;-73
2021/12/19 10:36:19;;;;;;;27.20;18.55;;;25.70;53.80;;;;;;1907704;74;21115;-74
2021/12/19 10:38:56;;;;;;;26.77;19.30;;;25.70;54.00;;;;;;1941829;73;21137;-76
2021/12/19 10:41:34;;;;;;;26.80;18.48;;;25.70;54.00;;;;;;1967253;73;21116;-73
2021/12/19 10:44:10;;;;;;;27.62;18.60;;;25.60;54.00;;;;;;1963348;73;21093;-73
2021/12/19 10:46:39;;;;;;;34.20;20.97;;;25.70;54.10;;;;;;1958710;72;21642;-72
2021/12/19 10:49:13;;;;;;;32.35;22.05;;;25.60;53.90;;;;;;1969101;72;21237;-74
2021/12/19 10:51:44;;;;;;;34.27;24.55;;;25.60;54.10;;;;;;1919419;74;21655;-74
2021/12/19 10:54:16;;;;;;;39.15;25.20;;;25.60;54.20;;;;;;1971264;73;21103;-73
2021/12/19 10:56:47;;;;;;;39.08;28.12;;;25.60;54.30;;;;;;1919010;73;21146;-74
2021/12/19 10:59:19;;;;;;;38.40;26.62;;;25.60;54.40;;;;;;1968996;73;21100;-72
2021/12/19 11:01:52;;;;;;;37.50;25.20;;;25.50;54.30;;;;;;1926918;73;21835;-73
2021/12/19 11:04:24;;;;;;;37.63;25.62;;;25.50;54.50;;;;;;1968371;73;21053;-72
2021/12/19 11:06:58;;;;;;;32.45;24.05;;;25.50;54.60;;;;;;1926091;73;21148;-72
2021/12/19 11:09:32;;;;;;;33.08;24.20;;;25.50;54.70;;;;;;1961976;72;21581;-72
2021/12/19 11:12:05;;;;;;;40.55;25.02;;;25.50;54.70;;;;;;1963753;73;21045;-73
2021/12/19 11:14:39;;;;;;;38.00;25.25;;;25.50;54.80;;;;;;1951022;72;21124;-73
2021/12/19 11:17:14;;;;;;;36.55;23.92;;;25.50;54.90;;;;;;1975438;72;21614;-73
2021/12/19 11:19:45;;;;;;;35.68;24.32;;;25.50;55.00;;;;;;1929598;74;21218;-72
2021/12/19 11:22:23;;;;;;;35.55;23.70;;;25.50;55.00;;;;;;1971633;73;21209;-73
2021/12/19 11:24:54;;;;;;;39.58;24.05;;;25.40;55.00;;;;;;1913324;73;21144;-73
2021/12/19 11:27:26;;;;;;;33.85;22.73;;;25.40;55.10;;;;;;1970695;72;21607;-73
2021/12/19 11:29:58;;;;;;;33.78;23.73;;;25.40;55.20;;;;;;1918771;73;21115;-73
2021/12/19 11:32:31;;;;;;;35.23;23.90;;;25.40;55.20;;;;;;1970704;73;21112;-75
2021/12/19 11:35:04;;;;;;;39.73;24.70;;;25.30;55.20;;;;;;1930390;74;21130;-76
2021/12/19 11:37:39;;;;;;;33.90;23.05;;;25.30;55.40;;;;;;1915334;73;21280;-75
2021/12/19 11:40:12;;;;;;;37.73;24.30;;;25.30;55.40;;;;;;1959878;73;21427;-75
2021/12/19 11:42:43;;;;;;;38.05;25.50;;;25.30;55.40;;;;;;1920463;73;21179;-74
2021/12/19 11:45:30;;;;;;;49.67;26.80;;;25.30;55.50;;;;;;1898355;74;21112;-73
2021/12/19 11:47:57;;;;;;;43.63;27.15;;;25.30;55.40;;;;;;1963027;72;21033;-74
2021/12/19 11:50:31;;;;;;;39.78;27.62;;;25.30;55.60;;;;;;1970783;72;21154;-74
2021/12/19 11:53:05;;;;;;;43.17;27.13;;;25.30;55.70;;;;;;1917478;74;21152;-74
2021/12/19 11:55:38;;;;;;;44.90;29.70;;;25.30;55.80;;;;;;1981125;71;21181;-75
2021/12/19 11:58:12;;;;;;;45.98;30.02;;;25.30;55.80;;;;;;1974196;71;21099;-74
2021/12/19 12:00:50;;;;;;;46.80;29.72;;;25.20;55.80;;;;;;1975974;71;21065;-74
2021/12/19 12:03:21;;;;;;;52.70;30.57;;;25.20;55.90;;;;;;2004665;71;21399;-74
2021/12/19 12:05:54;;;;;;;44.42;29.18;;;25.20;55.80;;;;;;2003470;71;21114;-73
2021/12/19 12:08:29;;;;;;;43.33;29.95;;;25.20;55.90;;;;;;1970556;71;21657;-74
2021/12/19 12:11:02;;;;;;;48.70;29.87;;;25.20;55.90;;;;;;1993926;71;21112;-73
2021/12/19 12:13:36;;;;;;;47.17;30.75;;;25.20;56.10;;;;;;1918580;74;21128;-73
2021/12/19 12:16:17;;;;;;;42.95;29.57;;;25.20;56.10;;;;;;1975580;71;21380;-74
2021/12/19 12:18:43;;;;;;;42.23;29.55;;;25.10;56.10;;;;;;1967383;72;21099;-74
2021/12/19 12:21:17;;;;;;;46.37;28.05;;;25.10;56.30;;;;;;1971997;73;21123;-74
2021/12/19 12:23:54;;;;;;;44.73;30.15;;;25.10;56.30;;;;;;1955956;72;21071;-72
2021/12/19 12:26:26;;;;;;;45.28;29.75;;;25.10;56.40;;;;;;1926193;73;21469;-75
2021/12/19 12:28:59;;;;;;;44.03;28.95;;;25.10;56.40;;;;;;1969177;72;21772;-74
2021/12/19 12:31:33;;;;;;;47.15;30.23;;;25.00;56.50;;;;;;1981669;72;21683;-73
2021/12/19 12:34:06;;;;;;;50.73;30.20;;;25.10;56.60;;;;;;1983017;72;21417;-74
2021/12/19 12:36:38;;;;;;;43.98;29.07;;;25.00;56.70;;;;;;1989253;72;21189;-74
2021/12/19 12:39:11;;;;;;;51.92;28.73;;;25.00;56.80;;;;;;1945895;74;21662;-75
2021/12/19 12:44:17;;;;;;;48.10;30.10;;;25.00;56.80;;;;;;1988662;72;21499;-74
2021/12/19 12:46:48;;;;;;;44.33;29.77;;;24.90;56.90;;;;;;1930451;74;21151;-73
2021/12/19 12:49:21;;;;;;;41.18;29.15;;;24.80;57.00;;;;;;1911929;74;21539;-73
2021/12/19 12:51:54;;;;;;;52.15;29.10;;;24.80;57.20;;;;;;1940600;73;21098;-74
2021/12/19 12:54:32;;;;;;;49.03;30.23;;;24.80;57.30;;;;;;1984509;72;21111;-72
2021/12/19 12:57:02;;;;;;;46.77;29.00;;;24.80;57.40;;;;;;1975963;72;21127;-72
2021/12/19 12:59:38;;;;;;;44.23;29.35;;;24.80;57.50;;;;;;1985608;72;21104;-73
2021/12/19 13:02:27;;;;;;;50.98;29.75;;;24.80;57.50;;;;;;1954670;72;21106;-73
2021/12/19 13:04:44;;;;;;;47.30;28.75;;;24.70;58.30;;;;;;1966037;72;21115;-73
2021/12/19 13:07:17;;;;;;;48.20;28.77;;;24.70;57.70;;;;;;1927853;74;21213;-73
2021/12/19 13:09:50;;;;;;;47.23;29.90;;;24.70;57.70;;;;;;1946058;74;21712;-73
2021/12/19 13:12:24;;;;;;;42.40;28.60;;;24.60;57.70;;;;;;1987668;72;21204;-73
2021/12/19 13:14:57;;;;;;;44.70;28.07;;;24.60;57.80;;;;;;1989412;72;21119;-73
2021/12/19 13:17:30;;;;;;;45.20;28.32;;;24.60;58.00;;;;;;1987821;72;21552;-73
2021/12/19 13:20:03;;;;;;;40.03;26.73;;;24.60;58.00;;;;;;1957364;72;21167;-73
2021/12/19 13:22:37;;;;;;;46.30;28.73;;;24.50;58.00;;;;;;1952311;72;21068;-72
2021/12/19 13:25:11;;;;;;;44.00;27.73;;;24.50;58.10;;;;;;1988990;72;21116;-73
2021/12/19 13:27:44;;;;;;;44.60;28.23;;;24.40;58.20;;;;;;1969046;72;21245;-74
2021/12/19 13:30:18;;;;;;;46.25;29.00;;;24.40;58.40;;;;;;1982735;71;21736;-72
2021/12/19 13:32:52;;;;;;;43.08;29.20;;;24.40;58.50;;;;;;1984508;72;21029;-72
2021/12/19 13:35:26;;;;;;;44.08;27.60;;;24.40;58.60;;;;;;1982706;72;21060;-73
2021/12/19 13:38:00;;;;;;;42.20;29.07;;;24.30;58.70;;;;;;1979452;72;21614;-72
2021/12/19 13:40:33;;;;;;;44.40;28.77;;;24.20;58.70;;;;;;1982057;72;21119;-73
2021/12/19 13:43:06;;;;;;;45.38;29.85;;;24.20;58.80;;;;;;1985975;72;21161;-72
2021/12/19 13:45:41;;;;;;;49.80;30.65;;;24.20;59.10;;;;;;1981639;72;21091;-72
2021/12/19 13:48:14;;;;;;;48.75;32.13;;;24.20;59.40;;;;;;1975490;72;21744;-72
2021/12/19 13:50:47;;;;;;;47.62;32.03;;;24.10;59.40;;;;;;1966766;72;21216;-72
2021/12/19 13:53:19;;;;;;;47.73;30.75;;;24.10;59.50;;;;;;1937258;72;21132;-72
2021/12/19 13:55:52;;;;;;;48.83;30.72;;;24.10;59.60;;;;;;1975006;72;21096;-73
2021/12/19 13:58:25;;;;;;;47.08;31.25;;;24.10;59.60;;;;;;1954622;72;21066;-72
2021/12/19 14:00:56;;;;;;;45.25;31.20;;;24.10;59.70;;;;;;1973717;72;21087;-73